createdAt,value
2019-02-17T00:01:52.219Z,18.33
2019-02-17T00:07:05.359Z,18.00
2019-02-17T00:12:12.547Z,16.30
2019-02-17T00:17:19.977Z,15.80
2019-02-17T00:22:28.171Z,15.33
2019-02-17T00:27:34.328Z,15.40
2019-02-17T00:32:41.254Z,15.27
2019-02-17T00:37:51.629Z,13.00
2019-02-17T00:42:59.777Z,13.80
2019-02-17T00:48:05.817Z,12.60
2019-02-17T00:53:17.951Z,11.97
2019-02-17T00:58:24.088Z,11.33
2019-02-17T01:03:31.895Z,11.93
2019-02-17T01:08:39.566Z,11.37
2019-02-17T01:13:46.862Z,12.07
2019-02-17T01:18:54.955Z,12.23
2019-02-17T01:24:02.855Z,11.70
2019-02-17T01:29:19.733Z,12.43
2019-02-17T01:34:19.440Z,14.00
2019-02-17T01:39:27.690Z,15.27
2019-02-17T01:44:34.895Z,16.97
2019-02-17T01:49:43.960Z,18.57
2019-02-17T01:54:52.909Z,20.70
2019-02-17T02:00:01.739Z,22.00
2019-02-17T02:05:08.439Z,18.00
2019-02-17T02:10:14.699Z,17.57
2019-02-17T02:15:24.381Z,18.30
2019-02-17T02:20:33.460Z,19.13
2019-02-17T02:25:41.455Z,17.83
2019-02-17T02:30:48.922Z,16.70
2019-02-17T02:35:55.268Z,17.00
2019-02-17T02:41:03.182Z,16.77
2019-02-17T02:46:09.623Z,20.17
2019-02-17T02:51:17.052Z,18.60
2019-02-17T02:56:24.893Z,17.83
2019-02-17T03:01:31.437Z,14.83
2019-02-17T03:06:44.048Z,17.20
2019-02-17T03:11:52.787Z,17.00
2019-02-17T03:17:00.819Z,15.50
2019-02-17T03:22:08.916Z,14.83
2019-02-17T03:27:15.062Z,15.80
2019-02-17T03:32:22.738Z,15.67
2019-02-17T03:37:30.641Z,16.87
2019-02-17T03:42:38.980Z,19.93
2019-02-17T03:47:45.410Z,14.27
2019-02-17T03:52:55.227Z,13.67
2019-02-17T03:58:04.524Z,13.80
2019-02-17T04:03:14.905Z,14.20
2019-02-17T04:08:21.039Z,12.67
2019-02-17T04:13:33.275Z,12.50
2019-02-17T04:18:41.014Z,12.13
2019-02-17T04:23:50.478Z,12.37
2019-02-17T04:28:59.271Z,12.27
2019-02-17T04:34:09.644Z,12.63
2019-02-17T04:39:16.304Z,14.20
2019-02-17T04:44:24.833Z,13.97
2019-02-17T04:49:33.846Z,13.97
2019-02-17T04:54:42.779Z,14.20
2019-02-17T04:59:50.558Z,14.10
2019-02-17T05:04:58.142Z,14.83
2019-02-17T05:10:05.135Z,11.90
2019-02-17T05:15:13.410Z,12.17
2019-02-17T05:20:20.827Z,13.37
2019-02-17T05:25:28.897Z,12.13
2019-02-17T05:30:35.457Z,11.30
2019-02-17T05:35:43.345Z,11.67
2019-02-17T05:40:50.203Z,10.90
2019-02-17T05:45:57.744Z,11.60
2019-02-17T05:51:03.666Z,11.73
2019-02-17T05:56:14.242Z,12.37
2019-02-17T06:01:23.544Z,12.37
2019-02-17T06:06:31.206Z,13.30
2019-02-17T06:11:39.666Z,12.63
2019-02-17T06:16:49.285Z,12.50
2019-02-17T06:21:57.622Z,12.43
2019-02-17T06:27:05.337Z,12.87
2019-02-17T06:32:14.451Z,12.77
2019-02-17T06:37:22.411Z,12.00
2019-02-17T06:42:31.402Z,12.70
2019-02-17T06:47:40.079Z,12.47
2019-02-17T06:52:48.380Z,13.33
2019-02-17T06:57:55.488Z,12.57
2019-02-17T07:03:04.333Z,12.67
2019-02-17T07:08:12.350Z,14.67
2019-02-17T07:13:21.414Z,16.37
2019-02-17T07:18:27.691Z,16.17
2019-02-17T07:23:36.466Z,16.50
2019-02-17T07:28:44.316Z,17.47
2019-02-17T07:33:51.779Z,18.33
2019-02-17T07:38:58.919Z,17.17
2019-02-17T07:44:05.407Z,17.33
2019-02-17T07:49:11.560Z,18.40
2019-02-17T07:54:18.690Z,15.87
2019-02-17T07:59:24.802Z,16.80
2019-02-17T08:04:32.316Z,16.57
2019-02-17T08:09:41.736Z,15.80
2019-02-17T08:14:47.859Z,13.00
2019-02-17T08:19:53.926Z,12.53
2019-02-17T08:25:01.679Z,12.33
2019-02-17T08:30:09.950Z,12.77
2019-02-17T08:35:16.028Z,13.47
2019-02-17T08:40:22.830Z,14.53
2019-02-17T08:45:30.359Z,14.97
2019-02-17T08:50:37.911Z,15.00
2019-02-17T08:55:46.142Z,15.20
2019-02-17T09:00:53.742Z,16.07
2019-02-17T09:06:02.921Z,12.47
2019-02-17T09:11:10.015Z,13.27
2019-02-17T09:16:18.585Z,14.13
2019-02-17T09:21:35.212Z,9.77
2019-02-17T09:26:57.140Z,4.77
2019-02-17T09:32:16.857Z,5.60
2019-02-17T09:37:32.796Z,7.03
2019-02-17T09:42:40.289Z,5.53
2019-02-17T09:47:46.372Z,5.27
2019-02-17T09:52:55.356Z,6.00
2019-02-17T09:58:03.028Z,4.90
2019-02-17T10:03:10.861Z,6.40
2019-02-17T10:08:18.833Z,5.70
2019-02-17T10:13:26.236Z,4.80
2019-02-17T10:18:33.512Z,4.30
2019-02-17T10:23:41.123Z,4.70
2019-02-17T10:28:48.934Z,5.60
2019-02-17T10:33:55.142Z,4.73
2019-02-17T10:39:02.747Z,3.73
2019-02-17T10:44:10.991Z,3.50
2019-02-17T10:49:19.557Z,3.10
2019-02-17T10:54:27.193Z,3.13
2019-02-17T10:59:33.662Z,4.37
2019-02-17T11:04:41.290Z,2.63
2019-02-17T11:09:47.923Z,3.37
2019-02-17T11:14:54.185Z,2.37
2019-02-17T11:20:02.324Z,2.70
2019-02-17T11:25:09.121Z,2.40
2019-02-17T11:30:17.273Z,2.50
2019-02-17T11:35:29.677Z,2.83
2019-02-17T11:40:39.736Z,2.90
2019-02-17T11:45:48.010Z,3.33
2019-02-17T11:50:56.981Z,3.00
2019-02-17T11:56:04.447Z,3.23
2019-02-17T12:01:11.132Z,2.33
2019-02-17T12:06:19.632Z,2.90
2019-02-17T12:11:27.315Z,3.00
2019-02-17T12:16:36.944Z,9.93
2019-02-17T12:22:20.636Z,2.70
2019-02-17T12:27:45.450Z,6.97
2019-02-17T12:32:53.311Z,3.60
2019-02-17T12:38:01.547Z,3.03
2019-02-17T12:43:09.540Z,2.93
2019-02-17T12:48:17.451Z,3.87
2019-02-17T12:53:25.049Z,3.57
2019-02-17T12:58:34.272Z,3.07
2019-02-17T13:03:42.039Z,3.13
2019-02-17T13:08:49.837Z,3.03
2019-02-17T13:13:57.700Z,3.37
2019-02-17T13:19:05.470Z,9.20
2019-02-17T13:24:13.018Z,3.30
2019-02-17T13:29:22.972Z,3.37
2019-02-17T13:34:30.707Z,3.93
2019-02-17T13:39:37.929Z,3.20
2019-02-17T13:44:44.058Z,2.90
2019-02-17T13:49:51.885Z,3.17
2019-02-17T13:54:58.762Z,3.97
2019-02-17T14:00:05.614Z,4.70
2019-02-17T14:05:13.689Z,6.07
2019-02-17T14:10:22.251Z,3.20
2019-02-17T14:16:07.385Z,7.67
2019-02-17T14:21:16.359Z,4.57
2019-02-17T14:26:23.993Z,5.00
2019-02-17T14:31:32.399Z,3.03
2019-02-17T14:36:40.479Z,3.90
2019-02-17T14:41:47.004Z,3.40
2019-02-17T14:47:01.622Z,66.30
2019-02-17T14:52:03.733Z,3.70
2019-02-17T14:57:11.050Z,3.83
2019-02-17T15:02:18.489Z,3.17
2019-02-17T15:07:25.060Z,3.23
2019-02-17T15:12:44.083Z,4.67
2019-02-17T15:17:52.127Z,3.17
2019-02-17T15:23:04.468Z,6.53
2019-02-17T15:28:12.967Z,4.47
2019-02-17T15:33:20.929Z,4.80
2019-02-17T15:38:27.701Z,4.60
2019-02-17T15:43:37.371Z,5.47
2019-02-17T15:48:47.576Z,5.00
2019-02-17T15:53:55.300Z,4.97
2019-02-17T15:59:03.128Z,6.70
2019-02-17T16:04:10.390Z,5.97
2019-02-17T16:09:21.456Z,5.13
2019-02-17T16:14:28.806Z,6.37
2019-02-17T16:19:35.116Z,8.67
2019-02-17T16:24:43.040Z,8.07
2019-02-17T16:29:51.046Z,9.23
2019-02-17T16:35:03.027Z,6.13
2019-02-17T16:40:12.096Z,8.47
2019-02-17T16:45:19.521Z,6.30
2019-02-17T16:50:31.785Z,7.17
2019-02-17T16:55:38.622Z,8.50
2019-02-17T17:00:45.569Z,9.20
2019-02-17T17:05:53.348Z,8.83
2019-02-17T17:11:01.093Z,9.50
2019-02-17T17:16:09.128Z,10.70
2019-02-17T17:21:17.707Z,12.50
2019-02-17T17:26:26.246Z,14.30
2019-02-17T17:31:33.962Z,18.60
2019-02-17T17:36:41.175Z,19.60
2019-02-17T17:41:47.668Z,17.83
2019-02-17T17:46:54.393Z,18.30
2019-02-17T17:52:02.164Z,18.77
2019-02-17T17:57:09.726Z,18.07
2019-02-17T18:02:17.518Z,16.20
2019-02-17T18:07:25.182Z,16.43
2019-02-17T18:12:33.013Z,16.93
2019-02-17T18:17:40.563Z,16.57
2019-02-17T18:22:48.964Z,16.90
2019-02-17T18:27:54.992Z,18.53
2019-02-17T18:33:01.206Z,18.87
2019-02-17T18:38:08.579Z,18.77
2019-02-17T18:43:15.471Z,18.27
2019-02-17T18:48:26.313Z,18.17
2019-02-17T18:53:33.907Z,18.53
2019-02-17T18:58:41.816Z,18.90
2019-02-17T19:03:48.861Z,20.27
2019-02-17T19:08:55.047Z,20.97
2019-02-17T19:14:06.141Z,20.07
2019-02-17T19:19:13.915Z,21.87
2019-02-17T19:24:21.895Z,23.40
2019-02-17T19:29:29.563Z,23.20
2019-02-17T19:34:37.124Z,24.67
2019-02-17T19:39:44.043Z,23.83
2019-02-17T19:44:58.119Z,22.43
2019-02-17T19:50:04.729Z,23.10
2019-02-17T19:55:12.251Z,21.67
2019-02-17T20:00:18.617Z,23.83
2019-02-17T20:05:27.514Z,22.70
2019-02-17T20:10:34.210Z,21.43
2019-02-17T20:15:42.164Z,21.97
2019-02-17T20:20:50.031Z,23.17
2019-02-17T20:25:58.038Z,22.23
2019-02-17T20:31:07.259Z,21.90
2019-02-17T20:36:14.043Z,23.07
2019-02-17T20:41:21.816Z,19.00
2019-02-17T20:46:28.742Z,20.63
2019-02-17T20:51:35.027Z,21.73
2019-02-17T20:56:41.034Z,23.27
2019-02-17T21:01:48.571Z,23.07
2019-02-17T21:06:54.940Z,28.70
2019-02-17T21:12:13.408Z,23.00
2019-02-17T21:17:23.956Z,21.20
2019-02-17T21:22:31.855Z,22.00
2019-02-17T21:29:10.489Z,21.53
2019-02-17T21:34:02.328Z,22.67
2019-02-17T21:39:36.683Z,24.77
2019-02-17T21:44:45.595Z,22.10
2019-02-17T21:55:40.010Z,23.03
2019-02-17T22:00:53.995Z,23.87
2019-02-17T22:06:02.710Z,32.30
2019-02-17T22:11:10.520Z,33.27
2019-02-17T22:16:20.324Z,24.27
2019-02-17T22:21:28.345Z,25.07
2019-02-17T22:26:40.600Z,26.57
2019-02-17T22:31:53.061Z,26.20
2019-02-17T22:37:03.760Z,27.30
2019-02-17T22:42:26.008Z,24.17
2019-02-17T22:47:30.380Z,23.60
2019-02-17T22:52:47.335Z,24.37
2019-02-17T22:58:15.867Z,25.10
2019-02-17T23:09:12.130Z,26.03
2019-02-17T23:14:33.457Z,26.70
2019-02-17T23:19:44.086Z,26.67
2019-02-17T23:25:01.375Z,26.23
2019-02-17T23:30:19.625Z,26.53
2019-02-17T23:35:33.164Z,28.00
2019-02-17T23:40:39.289Z,26.30
2019-02-17T23:45:46.886Z,28.77
2019-02-17T23:50:54.367Z,28.23
2019-02-17T23:56:02.097Z,28.63
